Time;durP1;ratioP1;P1;durP2;ratioP2;P2;SDS_P1;SDS_P2;PMS_P1;PMS_P2;Temp;Humidity;BMP_temperature;BMP_pressure;BME280_temperature;BME280_humidity;BME280_pressure;Samples;Min_cycle;Max_cycle;Signal;HPM_P1;HPM_P2
2022/03/31 00:22:23;;;;;;;4.05;3.65;;;;;;;;;;4575118;29;20086;-58
2022/03/31 00:24:49;;;;;;;4.67;4.13;;;;;;;;;;4125413;34;20312;-57
2022/03/31 00:27:15;;;;;;;4.12;3.72;;;;;;;;;;4122290;34;20138;-58
2022/03/31 00:29:40;;;;;;;4.28;3.87;;;;;;;;;;4124068;34;20128;-58
2022/03/31 00:32:07;;;;;;;4.87;4.37;;;;;;;;;;4124042;34;20114;-58
2022/03/31 00:34:35;;;;;;;4.90;4.50;;;;;;;;;;4123523;34;20214;-58
2022/03/31 00:37:02;;;;;;;5.10;4.60;;;;;;;;;;4122969;34;20224;-58
2022/03/31 00:39:28;;;;;;;5.70;5.12;;;;;;;;;;4124276;34;20211;-59
2022/03/31 00:41:54;;;;;;;5.30;4.80;;;;;;;;;;4124010;34;20233;-59
2022/03/31 00:44:21;;;;;;;5.62;5.10;;;;;;;;;;4123949;34;20123;-57
2022/03/31 00:46:51;;;;;;;6.47;5.87;;;;;;;;;;4124269;34;20214;-57
2022/03/31 00:49:19;;;;;;;7.05;6.35;;;;;;;;;;4124370;34;20124;-58
2022/03/31 00:51:46;;;;;;;7.55;6.80;;;;;;;;;;4124191;34;20104;-58
2022/03/31 00:54:13;;;;;;;6.37;5.70;;;;;;;;;;4124087;34;20096;-59
2022/03/31 00:56:40;;;;;;;6.72;6.03;;;;;;;;;;4111675;34;20460;-59
2022/03/31 00:59:08;;;;;;;8.07;7.25;;;;;;;;;;4123879;34;20194;-59
2022/03/31 01:01:35;;;;;;;8.00;6.53;;;;;;;;;;4123778;34;20480;-60
2022/03/31 01:04:03;;;;;;;7.78;6.65;;;;;;;;;;4123210;34;20149;-59
2022/03/31 01:06:29;;;;;;;8.15;6.55;;;;;;;;;;4123829;34;20107;-59
2022/03/31 01:08:56;;;;;;;7.62;6.78;;;;;;;;;;4123805;34;20213;-59
2022/03/31 01:11:22;;;;;;;9.13;6.72;;;;;;;;;;4123229;34;20112;-59
2022/03/31 01:13:48;;;;;;;7.90;6.37;;;;;;;;;;4123699;34;20526;-59
2022/03/31 01:16:15;;;;;;;7.18;6.12;;;;;;;;;;4123512;34;20460;-59
2022/03/31 01:18:42;;;;;;;5.95;5.35;;;;;;;;;;4123664;34;20160;-60
2022/03/31 01:21:09;;;;;;;6.35;5.37;;;;;;;;;;4123644;34;20108;-60
2022/03/31 01:23:36;;;;;;;6.35;5.55;;;;;;;;;;4123554;34;20123;-60
2022/03/31 01:26:08;;;;;;;5.75;5.12;;;;;;;;;;4123626;34;20095;-59
2022/03/31 01:28:36;;;;;;;6.20;5.60;;;;;;;;;;4123512;34;20444;-59
2022/03/31 01:31:02;;;;;;;9.75;6.12;;;;;;;;;;4111403;34;20096;-60
2022/03/31 01:33:28;;;;;;;9.20;6.53;;;;;;;;;;4123415;34;20127;-59
2022/03/31 01:35:55;;;;;;;14.75;9.65;;;;;;;;;;4123382;34;20108;-60
2022/03/31 01:38:21;;;;;;;11.10;7.18;;;;;;;;;;4123603;34;20112;-59
2022/03/31 01:40:47;;;;;;;8.85;5.90;;;;;;;;;;4123507;34;20120;-60
2022/03/31 01:43:13;;;;;;;6.90;5.28;;;;;;;;;;4123348;34;20460;-59
2022/03/31 01:45:40;;;;;;;6.25;5.28;;;;;;;;;;4123446;34;20104;-59
2022/03/31 01:48:06;;;;;;;4.95;3.92;;;;;;;;;;4123551;34;20119;-60
2022/03/31 01:50:33;;;;;;;5.30;3.90;;;;;;;;;;4123378;34;20548;-59
2022/03/31 01:52:59;;;;;;;4.28;3.12;;;;;;;;;;4111325;34;20158;-58
2022/03/31 01:55:25;;;;;;;5.90;3.60;;;;;;;;;;4123208;34;20146;-58
2022/03/31 01:57:51;;;;;;;5.45;2.90;;;;;;;;;;4123658;34;20108;-59
2022/03/31 02:00:17;;;;;;;3.97;3.58;;;;;;;;;;4123280;34;20099;-59
2022/03/31 02:02:43;;;;;;;5.95;4.32;;;;;;;;;;4123356;34;20571;-58
2022/03/31 02:05:11;;;;;;;5.03;4.07;;;;;;;;;;4123243;34;20215;-59
2022/03/31 02:07:38;;;;;;;6.07;4.30;;;;;;;;;;4123354;34;20535;-59
2022/03/31 02:10:12;;;;;;;8.52;5.65;;;;;;;;;;4123112;34;20472;-59
2022/03/31 02:12:39;;;;;;;6.35;4.47;;;;;;;;;;4123336;34;20449;-59
2022/03/31 02:15:05;;;;;;;4.82;4.05;;;;;;;;;;4110685;34;20785;-59
2022/03/31 02:17:32;;;;;;;12.13;6.30;;;;;;;;;;4123160;34;20108;-59
2022/03/31 02:19:58;;;;;;;15.68;7.07;;;;;;;;;;4123133;34;20103;-58
2022/03/31 02:22:24;;;;;;;10.10;6.45;;;;;;;;;;4122183;34;20115;-59
2022/03/31 02:24:50;;;;;;;10.20;6.82;;;;;;;;;;4123099;34;20103;-58
2022/03/31 02:27:16;;;;;;;10.65;6.93;;;;;;;;;;4123173;34;20098;-59
2022/03/31 02:29:43;;;;;;;10.10;6.75;;;;;;;;;;4123142;34;20539;-59
2022/03/31 02:32:09;;;;;;;7.80;6.00;;;;;;;;;;4123114;34;20442;-59
2022/03/31 02:34:35;;;;;;;6.30;5.50;;;;;;;;;;4122978;34;20159;-58
2022/03/31 02:37:03;;;;;;;8.90;5.95;;;;;;;;;;4122949;34;20092;-59
2022/03/31 02:39:29;;;;;;;7.37;5.47;;;;;;;;;;4122962;34;20120;-58
2022/03/31 02:42:01;;;;;;;9.77;5.65;;;;;;;;;;4110402;34;20112;-58
2022/03/31 02:44:27;;;;;;;9.05;5.90;;;;;;;;;;4123132;34;20142;-58
2022/03/31 02:46:53;;;;;;;8.32;6.05;;;;;;;;;;4122881;34;20127;-59
2022/03/31 02:49:19;;;;;;;7.57;5.30;;;;;;;;;;4123177;34;20127;-60
2022/03/31 02:51:45;;;;;;;5.87;4.87;;;;;;;;;;4123032;34;20143;-59
2022/03/31 02:56:55;;;;;;;6.40;5.70;;;;;;;;;;4122751;34;20136;-59
2022/03/31 02:59:21;;;;;;;7.15;5.40;;;;;;;;;;4122793;34;20122;-60
2022/03/31 03:01:47;;;;;;;5.50;5.00;;;;;;;;;;4123012;34;20158;-59
2022/03/31 03:04:13;;;;;;;5.60;4.90;;;;;;;;;;4122963;34;20516;-62
2022/03/31 03:06:39;;;;;;;6.03;5.22;;;;;;;;;;4122680;34;20182;-62
2022/03/31 03:09:06;;;;;;;5.68;5.07;;;;;;;;;;4123088;34;20123;-61
2022/03/31 03:11:33;;;;;;;5.95;5.20;;;;;;;;;;4109943;34;20207;-62
2022/03/31 03:13:59;;;;;;;5.87;5.28;;;;;;;;;;4122634;34;20099;-61
2022/03/31 03:16:25;;;;;;;5.37;4.87;;;;;;;;;;4122708;34;20124;-61
2022/03/31 03:18:52;;;;;;;6.32;5.72;;;;;;;;;;4121219;34;20123;-61
2022/03/31 03:21:19;;;;;;;5.47;4.97;;;;;;;;;;4122368;34;20114;-62
2022/03/31 03:23:45;;;;;;;5.87;5.03;;;;;;;;;;4110099;34;20127;-68
2022/03/31 03:26:12;;;;;;;5.03;4.60;;;;;;;;;;4109985;34;20116;-66
2022/03/31 03:28:38;;;;;;;5.68;5.07;;;;;;;;;;4099218;34;20529;-64
2022/03/31 03:31:05;;;;;;;4.95;4.45;;;;;;;;;;4110233;34;20127;-67
2022/03/31 03:33:32;;;;;;;4.93;4.43;;;;;;;;;;4123005;34;20179;-62
2022/03/31 03:35:59;;;;;;;9.52;6.45;;;;;;;;;;4124358;34;20108;-62
2022/03/31 03:38:26;;;;;;;10.23;6.72;;;;;;;;;;4124426;34;20454;-63
2022/03/31 03:40:52;;;;;;;9.70;6.32;;;;;;;;;;4123014;34;20108;-63
2022/03/31 03:43:18;;;;;;;18.35;9.95;;;;;;;;;;4112153;34;20532;-63
2022/03/31 03:45:44;;;;;;;16.55;9.32;;;;;;;;;;4123467;34;20134;-63
2022/03/31 03:48:13;;;;;;;14.52;8.80;;;;;;;;;;4123326;34;20256;-63
2022/03/31 03:50:39;;;;;;;11.30;6.72;;;;;;;;;;4124328;34;20471;-62
2022/03/31 03:53:07;;;;;;;10.10;6.12;;;;;;;;;;4124273;34;20453;-63
2022/03/31 03:55:34;;;;;;;7.30;5.82;;;;;;;;;;4111787;34;20616;-64
2022/03/31 03:58:01;;;;;;;7.95;6.12;;;;;;;;;;4124503;34;20123;-64
2022/03/31 04:00:27;;;;;;;7.97;5.32;;;;;;;;;;4124226;34;20112;-61
2022/03/31 04:02:54;;;;;;;8.35;5.95;;;;;;;;;;4124367;34;20143;-62
2022/03/31 04:05:21;;;;;;;7.35;5.90;;;;;;;;;;4124190;34;20115;-61
2022/03/31 04:07:47;;;;;;;9.05;5.72;;;;;;;;;;4124651;34;20106;-61
2022/03/31 04:10:13;;;;;;;12.70;6.45;;;;;;;;;;4124167;34;20099;-63
2022/03/31 04:12:40;;;;;;;6.75;5.00;;;;;;;;;;4124398;34;20201;-62
2022/03/31 04:15:07;;;;;;;8.38;5.35;;;;;;;;;;4124048;34;20128;-62
2022/03/31 04:17:34;;;;;;;9.50;5.47;;;;;;;;;;4124140;34;20119;-62
2022/03/31 04:20:00;;;;;;;7.82;5.68;;;;;;;;;;4124113;34;20100;-61
2022/03/31 04:22:27;;;;;;;7.50;5.00;;;;;;;;;;4124221;34;20119;-62
2022/03/31 04:24:53;;;;;;;7.18;4.68;;;;;;;;;;4124025;34;20112;-61
2022/03/31 04:27:19;;;;;;;7.75;4.45;;;;;;;;;;4124332;34;20215;-62
2022/03/31 04:29:45;;;;;;;5.90;4.22;;;;;;;;;;4122611;34;20107;-62
2022/03/31 04:32:12;;;;;;;4.68;3.70;;;;;;;;;;4123988;34;20629;-62
2022/03/31 04:34:38;;;;;;;6.05;3.47;;;;;;;;;;4123987;34;20453;-62
2022/03/31 04:37:06;;;;;;;4.95;4.03;;;;;;;;;;4124143;34;20135;-62
2022/03/31 04:39:32;;;;;;;3.20;2.90;;;;;;;;;;4123960;34;20142;-62
2022/03/31 04:41:58;;;;;;;4.00;2.90;;;;;;;;;;4124109;34;20132;-62
2022/03/31 04:44:24;;;;;;;4.40;3.30;;;;;;;;;;4124120;34;20131;-62
2022/03/31 04:46:50;;;;;;;4.60;3.50;;;;;;;;;;4123372;34;20143;-62
2022/03/31 04:49:16;;;;;;;3.90;3.28;;;;;;;;;;4124158;34;20131;-60
2022/03/31 04:51:42;;;;;;;3.55;3.22;;;;;;;;;;4123726;34;20122;-63
2022/03/31 04:54:08;;;;;;;4.03;3.25;;;;;;;;;;4123769;34;20162;-62
2022/03/31 04:56:34;;;;;;;4.35;3.78;;;;;;;;;;4123890;34;20595;-63
2022/03/31 04:59:00;;;;;;;4.22;3.40;;;;;;;;;;4122531;34;20096;-62
2022/03/31 05:01:26;;;;;;;3.65;3.00;;;;;;;;;;4123900;34;20436;-61
2022/03/31 05:03:55;;;;;;;3.53;3.22;;;;;;;;;;4124072;34;20522;-62
2022/03/31 05:06:21;;;;;;;3.78;3.37;;;;;;;;;;4123665;34;20123;-61
2022/03/31 05:08:47;;;;;;;4.20;3.80;;;;;;;;;;4124051;34;20104;-62
2022/03/31 05:11:13;;;;;;;6.80;3.35;;;;;;;;;;4123694;34;20203;-63
2022/03/31 05:13:39;;;;;;;4.00;3.20;;;;;;;;;;4123741;34;20465;-63
2022/03/31 05:16:05;;;;;;;4.15;3.55;;;;;;;;;;4123861;34;20119;-62
2022/03/31 05:18:32;;;;;;;4.03;3.62;;;;;;;;;;4123757;34;20127;-62
2022/03/31 05:20:58;;;;;;;7.18;4.35;;;;;;;;;;4123954;34;20099;-62
2022/03/31 05:23:24;;;;;;;4.55;3.78;;;;;;;;;;4123764;34;20132;-62
2022/03/31 05:25:50;;;;;;;4.62;3.78;;;;;;;;;;4123627;34;20104;-62
2022/03/31 05:28:16;;;;;;;4.97;3.87;;;;;;;;;;4123642;34;20542;-63
2022/03/31 05:30:43;;;;;;;4.22;3.83;;;;;;;;;;4123621;34;20102;-62
2022/03/31 05:33:10;;;;;;;4.00;3.58;;;;;;;;;;4123666;34;20140;-63
2022/03/31 05:35:36;;;;;;;3.83;3.42;;;;;;;;;;4123464;34;20118;-63
2022/03/31 05:38:03;;;;;;;3.58;3.25;;;;;;;;;;4123711;34;20525;-63
2022/03/31 05:40:29;;;;;;;3.78;3.35;;;;;;;;;;4123434;34;20096;-62
2022/03/31 05:42:55;;;;;;;3.65;2.67;;;;;;;;;;4122051;34;20106;-69
2022/03/31 05:45:22;;;;;;;3.33;2.78;;;;;;;;;;4123320;34;20108;-64
2022/03/31 05:47:48;;;;;;;3.40;3.10;;;;;;;;;;4123232;34;20195;-64
2022/03/31 05:50:14;;;;;;;3.12;2.83;;;;;;;;;;4123339;34;20106;-63
2022/03/31 05:52:43;;;;;;;3.03;2.70;;;;;;;;;;4123647;34;20111;-63
2022/03/31 05:55:15;;;;;;;4.30;3.10;;;;;;;;;;4123133;34;20148;-63
2022/03/31 05:57:41;;;;;;;3.75;3.35;;;;;;;;;;4123119;34;20216;-64
2022/03/31 06:00:09;;;;;;;5.05;3.62;;;;;;;;;;4121088;34;20123;-62
2022/03/31 06:02:36;;;;;;;4.53;4.07;;;;;;;;;;4121658;34;20132;-62
2022/03/31 06:05:02;;;;;;;5.87;3.62;;;;;;;;;;4122833;34;20124;-63
2022/03/31 06:07:28;;;;;;;4.32;3.92;;;;;;;;;;4135377;34;20123;-63
2022/03/31 06:09:54;;;;;;;4.22;3.40;;;;;;;;;;4136729;34;20244;-62
2022/03/31 06:12:22;;;;;;;4.07;3.67;;;;;;;;;;4135166;34;20115;-59
2022/03/31 06:14:48;;;;;;;4.78;3.25;;;;;;;;;;4136179;34;20143;-59
2022/03/31 06:17:14;;;;;;;3.72;3.20;;;;;;;;;;4136154;34;20511;-61
2022/03/31 06:19:40;;;;;;;7.22;4.20;;;;;;;;;;4136160;34;20457;-65
2022/03/31 06:22:06;;;;;;;5.20;3.80;;;;;;;;;;4135946;34;20108;-65
2022/03/31 06:24:32;;;;;;;6.50;4.35;;;;;;;;;;4134796;34;20088;-65
2022/03/31 06:27:00;;;;;;;5.12;3.67;;;;;;;;;;4136439;34;20096;-65
2022/03/31 06:29:27;;;;;;;5.78;5.00;;;;;;;;;;4136624;34;20083;-60
2022/03/31 06:31:53;;;;;;;4.40;4.00;;;;;;;;;;4136168;34;20094;-61
2022/03/31 06:34:20;;;;;;;3.65;3.28;;;;;;;;;;4135950;34;20123;-61
2022/03/31 06:36:46;;;;;;;4.57;3.45;;;;;;;;;;4134670;34;20110;-64
2022/03/31 06:39:13;;;;;;;4.68;3.62;;;;;;;;;;4122945;34;20134;-66
2022/03/31 06:41:44;;;;;;;5.22;3.67;;;;;;;;;;4110460;34;20096;-65
2022/03/31 06:44:13;;;;;;;3.92;3.53;;;;;;;;;;4122567;34;20131;-66
2022/03/31 06:46:42;;;;;;;6.18;3.60;;;;;;;;;;4122438;34;20123;-63
2022/03/31 06:49:09;;;;;;;6.87;4.15;;;;;;;;;;4122671;34;20217;-61
2022/03/31 06:51:35;;;;;;;7.35;4.68;;;;;;;;;;4119853;34;20132;-61
2022/03/31 06:54:02;;;;;;;4.90;4.05;;;;;;;;;;4121241;34;20187;-61
2022/03/31 06:56:29;;;;;;;5.87;3.92;;;;;;;;;;4121866;34;20147;-62
2022/03/31 06:58:55;;;;;;;4.72;4.05;;;;;;;;;;4121134;34;20209;-62
2022/03/31 07:01:21;;;;;;;5.53;4.97;;;;;;;;;;4122353;34;20124;-61
2022/03/31 07:03:47;;;;;;;7.50;4.50;;;;;;;;;;4122427;34;20131;-62
2022/03/31 07:06:14;;;;;;;4.90;4.40;;;;;;;;;;4127283;34;20107;-61
2022/03/31 07:08:40;;;;;;;4.55;4.12;;;;;;;;;;4137248;34;20220;-61
2022/03/31 07:11:06;;;;;;;4.70;3.80;;;;;;;;;;4140046;34;20562;-62
2022/03/31 07:13:32;;;;;;;4.03;3.67;;;;;;;;;;4140334;34;20146;-60
2022/03/31 07:15:58;;;;;;;5.35;3.90;;;;;;;;;;4139818;34;20785;-62
2022/03/31 07:18:24;;;;;;;5.20;3.53;;;;;;;;;;4137763;34;20785;-60
2022/03/31 07:20:50;;;;;;;3.58;3.28;;;;;;;;;;4126460;34;20184;-61
2022/03/31 07:23:18;;;;;;;4.03;3.15;;;;;;;;;;4126318;34;20107;-62
2022/03/31 07:25:44;;;;;;;3.92;3.50;;;;;;;;;;4128512;34;20563;-61
2022/03/31 07:28:10;;;;;;;3.92;3.50;;;;;;;;;;4132987;34;20123;-62
2022/03/31 07:30:36;;;;;;;3.72;3.35;;;;;;;;;;4128442;34;20527;-62
2022/03/31 07:33:03;;;;;;;4.20;3.37;;;;;;;;;;4140056;34;20108;-63
2022/03/31 07:35:32;;;;;;;3.80;3.40;;;;;;;;;;4139624;34;20119;-61
2022/03/31 07:37:59;;;;;;;3.95;3.25;;;;;;;;;;4132204;34;20558;-61
2022/03/31 07:40:26;;;;;;;4.03;3.15;;;;;;;;;;4126306;34;20120;-61
2022/03/31 07:42:52;;;;;;;4.03;3.22;;;;;;;;;;4126612;34;20123;-62
2022/03/31 07:45:19;;;;;;;2.85;2.50;;;;;;;;;;4126371;34;20116;-62
2022/03/31 07:47:45;;;;;;;3.33;2.85;;;;;;;;;;4126752;34;20123;-62
2022/03/31 07:50:14;;;;;;;3.20;2.90;;;;;;;;;;4126613;34;20130;-63
2022/03/31 07:52:41;;;;;;;3.25;2.67;;;;;;;;;;4125470;34;20124;-62
2022/03/31 07:55:09;;;;;;;4.20;3.30;;;;;;;;;;4125784;34;20194;-62
2022/03/31 07:57:36;;;;;;;5.37;3.87;;;;;;;;;;4139310;34;20524;-62
2022/03/31 08:00:03;;;;;;;4.57;3.90;;;;;;;;;;4139722;34;20118;-62
2022/03/31 08:02:29;;;;;;;6.65;4.10;;;;;;;;;;4139055;34;20571;-60
2022/03/31 08:04:55;;;;;;;4.32;3.92;;;;;;;;;;4139463;34;20168;-62
2022/03/31 08:07:21;;;;;;;4.47;4.07;;;;;;;;;;4139862;34;20150;-61
2022/03/31 08:09:47;;;;;;;5.93;4.78;;;;;;;;;;4139954;34;20499;-58
2022/03/31 08:12:13;;;;;;;5.28;4.05;;;;;;;;;;4139485;34;20186;-62
2022/03/31 08:14:39;;;;;;;4.03;3.55;;;;;;;;;;4137741;34;20115;-63
2022/03/31 08:17:06;;;;;;;4.85;3.65;;;;;;;;;;4139364;34;20224;-61
2022/03/31 08:19:33;;;;;;;6.87;3.65;;;;;;;;;;4139208;34;20131;-63
2022/03/31 08:22:01;;;;;;;4.20;3.70;;;;;;;;;;4136814;34;20127;-63
2022/03/31 08:24:28;;;;;;;7.40;4.10;;;;;;;;;;4136789;34;20301;-63
2022/03/31 08:26:54;;;;;;;5.05;4.55;;;;;;;;;;4136934;34;20217;-62
2022/03/31 08:29:20;;;;;;;4.35;3.75;;;;;;;;;;4126301;34;20583;-63
2022/03/31 08:31:46;;;;;;;6.22;4.22;;;;;;;;;;4123517;34;20100;-67
2022/03/31 08:34:12;;;;;;;5.90;4.35;;;;;;;;;;4123533;34;20127;-66
2022/03/31 08:36:38;;;;;;;4.12;3.53;;;;;;;;;;4130666;34;20091;-66
2022/03/31 08:39:05;;;;;;;3.42;3.08;;;;;;;;;;4122418;34;20183;-67
2022/03/31 08:41:32;;;;;;;3.53;3.22;;;;;;;;;;4123460;34;20513;-70
2022/03/31 08:43:58;;;;;;;3.90;3.50;;;;;;;;;;4111420;34;20841;-67
2022/03/31 08:46:27;;;;;;;3.92;3.53;;;;;;;;;;4123397;34;20115;-67
2022/03/31 08:48:54;;;;;;;4.07;3.30;;;;;;;;;;4123906;34;20174;-67
2022/03/31 08:51:22;;;;;;;3.97;3.33;;;;;;;;;;4122183;34;20084;-67
2022/03/31 08:53:47;;;;;;;4.50;3.45;;;;;;;;;;4122902;34;20123;-65
2022/03/31 08:56:13;;;;;;;4.10;2.90;;;;;;;;;;4127517;34;20427;-67
2022/03/31 08:58:43;;;;;;;3.72;3.28;;;;;;;;;;4136799;34;20918;-64
2022/03/31 09:01:11;;;;;;;3.42;3.12;;;;;;;;;;4127729;34;20087;-65
2022/03/31 09:03:38;;;;;;;4.20;3.00;;;;;;;;;;4123634;34;20120;-65
2022/03/31 09:06:05;;;;;;;4.22;3.40;;;;;;;;;;4123435;34;20110;-65
2022/03/31 09:08:31;;;;;;;4.35;3.25;;;;;;;;;;4123520;34;20147;-63
2022/03/31 09:11:00;;;;;;;3.92;3.45;;;;;;;;;;4120334;34;20575;-65
2022/03/31 09:13:29;;;;;;;5.65;2.85;;;;;;;;;;4123579;34;20127;-64
2022/03/31 09:16:03;;;;;;;4.03;3.00;;;;;;;;;;4123216;34;20115;-65
2022/03/31 09:18:31;;;;;;;3.40;2.95;;;;;;;;;;4123145;34;20115;-64
2022/03/31 09:20:59;;;;;;;3.67;2.83;;;;;;;;;;4123257;34;20220;-66
2022/03/31 09:23:43;;;;;;;3.10;2.80;;;;;;;;;;4132170;34;20135;-67
2022/03/31 09:26:12;;;;;;;3.33;2.95;;;;;;;;;;4121532;34;20120;-66
2022/03/31 09:28:44;;;;;;;5.87;3.75;;;;;;;;;;4110957;34;20092;-62
2022/03/31 09:31:10;;;;;;;4.47;4.03;;;;;;;;;;4122929;34;20209;-61
2022/03/31 09:33:48;;;;;;;6.28;3.55;;;;;;;;;;4123184;34;20198;-63
2022/03/31 09:36:16;;;;;;;5.03;3.60;;;;;;;;;;4122803;34;20520;-62
2022/03/31 09:39:02;;;;;;;5.25;3.78;;;;;;;;;;4123287;34;20476;-65
2022/03/31 09:41:32;;;;;;;5.90;3.90;;;;;;;;;;4121480;34;20552;-65
2022/03/31 09:44:02;;;;;;;4.93;4.18;;;;;;;;;;4123403;34;20115;-65
2022/03/31 09:46:39;;;;;;;5.28;4.22;;;;;;;;;;4123035;34;20131;-65
2022/03/31 09:49:19;;;;;;;5.82;3.85;;;;;;;;;;4110997;34;20107;-65
2022/03/31 09:51:51;;;;;;;3.70;3.40;;;;;;;;;;4110244;34;20128;-64
2022/03/31 09:54:18;;;;;;;5.18;4.68;;;;;;;;;;4121084;34;20108;-64
2022/03/31 09:56:44;;;;;;;7.45;4.45;;;;;;;;;;4131527;34;20111;-63
2022/03/31 09:59:15;;;;;;;4.55;3.70;;;;;;;;;;4135465;34;20153;-63
2022/03/31 10:01:42;;;;;;;3.50;3.20;;;;;;;;;;4136390;34;20107;-62
2022/03/31 10:04:10;;;;;;;5.70;3.80;;;;;;;;;;4136135;34;20104;-62
2022/03/31 10:06:38;;;;;;;3.97;3.40;;;;;;;;;;4136177;34;20106;-64
2022/03/31 10:09:05;;;;;;;4.10;3.25;;;;;;;;;;4136572;34;20483;-64
2022/03/31 10:11:33;;;;;;;3.78;3.40;;;;;;;;;;4123644;34;20135;-63
2022/03/31 10:14:17;;;;;;;3.67;3.37;;;;;;;;;;4136197;34;20143;-63
2022/03/31 10:16:54;;;;;;;3.83;3.53;;;;;;;;;;4135960;34;20178;-64
2022/03/31 10:19:36;;;;;;;5.53;4.47;;;;;;;;;;4136702;34;20150;-64
2022/03/31 10:22:09;;;;;;;4.03;3.65;;;;;;;;;;4135997;34;20203;-64
2022/03/31 10:24:41;;;;;;;5.62;4.93;;;;;;;;;;4136129;34;20119;-64
2022/03/31 10:27:08;;;;;;;5.47;3.40;;;;;;;;;;4124360;34;20209;-66
2022/03/31 10:29:39;;;;;;;4.60;3.62;;;;;;;;;;4136348;34;20125;-66
2022/03/31 10:32:25;;;;;;;5.25;3.75;;;;;;;;;;4136120;34;20130;-65
2022/03/31 10:34:53;;;;;;;8.73;3.62;;;;;;;;;;4136016;34;20189;-66
2022/03/31 10:37:38;;;;;;;4.18;3.78;;;;;;;;;;4131350;34;20104;-64
2022/03/31 10:40:07;;;;;;;4.40;3.75;;;;;;;;;;4122912;34;20118;-64
2022/03/31 10:42:33;;;;;;;5.57;4.03;;;;;;;;;;4121174;34;20103;-64
2022/03/31 10:45:14;;;;;;;6.28;3.80;;;;;;;;;;4122012;34;20135;-64
2022/03/31 10:47:43;;;;;;;3.97;3.67;;;;;;;;;;4121435;34;20612;-63
2022/03/31 10:50:22;;;;;;;4.40;4.00;;;;;;;;;;4122628;34;20103;-64
2022/03/31 10:53:01;;;;;;;3.72;3.40;;;;;;;;;;4129905;34;20183;-64
2022/03/31 10:55:36;;;;;;;6.78;3.47;;;;;;;;;;4134271;34;20119;-65
2022/03/31 10:58:02;;;;;;;3.62;3.33;;;;;;;;;;4122745;34;20119;-64
2022/03/31 11:00:28;;;;;;;3.08;2.80;;;;;;;;;;4126773;34;20131;-64
2022/03/31 11:02:55;;;;;;;3.17;2.83;;;;;;;;;;4122753;34;20127;-65
2022/03/31 11:05:22;;;;;;;3.55;2.75;;;;;;;;;;4122535;34;20111;-67
2022/03/31 11:07:48;;;;;;;3.00;2.70;;;;;;;;;;4110311;34;20130;-65
2022/03/31 11:10:15;;;;;;;3.17;2.60;;;;;;;;;;4120909;34;20118;-65
2022/03/31 11:12:42;;;;;;;3.58;2.80;;;;;;;;;;4122321;34;20271;-64
2022/03/31 11:15:13;;;;;;;3.65;2.60;;;;;;;;;;4109813;34;20191;-64
2022/03/31 11:17:41;;;;;;;3.17;2.87;;;;;;;;;;4110015;34;20112;-65
2022/03/31 11:20:21;;;;;;;3.45;2.55;;;;;;;;;;4122382;34;20099;-63
2022/03/31 11:22:49;;;;;;;3.00;2.67;;;;;;;;;;4120931;34;20450;-63
2022/03/31 11:25:17;;;;;;;3.90;2.60;;;;;;;;;;4122020;34;20540;-64
2022/03/31 11:27:46;;;;;;;2.97;2.70;;;;;;;;;;4121221;34;20167;-64
2022/03/31 11:30:15;;;;;;;3.75;2.75;;;;;;;;;;4122094;34;20184;-64
2022/03/31 11:32:44;;;;;;;3.30;2.83;;;;;;;;;;4122552;34;20217;-64
2022/03/31 11:35:11;;;;;;;4.07;2.72;;;;;;;;;;4122022;34;20102;-65
2022/03/31 11:37:57;;;;;;;4.00;2.90;;;;;;;;;;4122291;34;20139;-63
2022/03/31 11:40:26;;;;;;;6.45;4.78;;;;;;;;;;4121850;34;20207;-66
2022/03/31 11:42:55;;;;;;;3.28;2.97;;;;;;;;;;4121960;34;20549;-62
2022/03/31 11:45:26;;;;;;;3.10;2.80;;;;;;;;;;4121927;34;20104;-65
2022/03/31 11:48:15;;;;;;;2.92;2.62;;;;;;;;;;4122261;34;20199;-66
2022/03/31 11:51:08;;;;;;;3.22;2.62;;;;;;;;;;4121875;34;20147;-64
2022/03/31 11:53:35;;;;;;;3.35;2.47;;;;;;;;;;4118611;34;20100;-64
2022/03/31 11:56:15;;;;;;;3.30;3.00;;;;;;;;;;4127850;34;20111;-64
2022/03/31 11:58:56;;;;;;;3.53;3.22;;;;;;;;;;4137492;34;20569;-64
2022/03/31 12:01:37;;;;;;;3.75;3.30;;;;;;;;;;4135611;34;20084;-65
2022/03/31 12:04:04;;;;;;;2.90;2.60;;;;;;;;;;4125118;34;20130;-65
2022/03/31 12:06:34;;;;;;;3.20;2.90;;;;;;;;;;4135712;34;20590;-66
2022/03/31 12:09:00;;;;;;;7.28;3.35;;;;;;;;;;4137454;34;20111;-61
2022/03/31 12:11:29;;;;;;;5.43;3.28;;;;;;;;;;4137071;34;20558;-63
2022/03/31 12:13:57;;;;;;;3.83;3.50;;;;;;;;;;4137004;34;20111;-64
2022/03/31 12:16:24;;;;;;;3.33;3.00;;;;;;;;;;4130374;34;20100;-62
2022/03/31 12:18:59;;;;;;;4.15;3.05;;;;;;;;;;4124302;34;20120;-66
2022/03/31 12:21:27;;;;;;;3.65;3.30;;;;;;;;;;4122684;34;20110;-64
2022/03/31 12:23:56;;;;;;;3.55;2.97;;;;;;;;;;4111345;34;20194;-68
2022/03/31 12:26:23;;;;;;;5.72;3.35;;;;;;;;;;4123573;34;20119;-65
2022/03/31 12:28:50;;;;;;;3.25;2.95;;;;;;;;;;4123914;34;20196;-65
2022/03/31 12:31:23;;;;;;;3.30;2.92;;;;;;;;;;4123624;34;20103;-66
2022/03/31 12:33:53;;;;;;;3.72;3.10;;;;;;;;;;4123752;34;20103;-66
2022/03/31 12:36:32;;;;;;;4.10;3.40;;;;;;;;;;4121985;34;20560;-63
2022/03/31 12:38:59;;;;;;;4.47;3.10;;;;;;;;;;4110569;34;20466;-64
2022/03/31 12:41:36;;;;;;;3.90;3.00;;;;;;;;;;4117056;34;20117;-64
2022/03/31 12:44:12;;;;;;;4.72;3.75;;;;;;;;;;4123618;34;20115;-65
2022/03/31 12:46:40;;;;;;;5.65;4.25;;;;;;;;;;4122071;34;20115;-65
2022/03/31 12:49:08;;;;;;;3.90;3.50;;;;;;;;;;4123784;34;20229;-65
2022/03/31 12:51:47;;;;;;;7.30;4.65;;;;;;;;;;4123145;34;20124;-65
2022/03/31 12:54:39;;;;;;;8.30;4.65;;;;;;;;;;4123064;34;20499;-65
2022/03/31 12:57:26;;;;;;;5.60;4.60;;;;;;;;;;4134245;34;20103;-63
2022/03/31 13:00:07;;;;;;;6.00;4.53;;;;;;;;;;4137243;34;20115;-63
2022/03/31 13:02:34;;;;;;;5.43;4.43;;;;;;;;;;4136863;34;20107;-64
2022/03/31 13:05:01;;;;;;;5.47;4.78;;;;;;;;;;4136728;34;20110;-63
2022/03/31 13:07:30;;;;;;;8.00;5.65;;;;;;;;;;4136215;34;20515;-63
2022/03/31 13:09:58;;;;;;;6.75;5.80;;;;;;;;;;4136870;34;20119;-61
2022/03/31 13:12:29;;;;;;;7.00;6.30;;;;;;;;;;4136597;34;20468;-63
2022/03/31 13:14:56;;;;;;;7.90;6.95;;;;;;;;;;4136540;34;20110;-62
2022/03/31 13:17:22;;;;;;;8.65;7.85;;;;;;;;;;4136203;34;20123;-63
2022/03/31 13:19:50;;;;;;;9.25;8.30;;;;;;;;;;4136764;34;20526;-63
2022/03/31 13:22:20;;;;;;;8.73;7.87;;;;;;;;;;4136360;34;20128;-63
2022/03/31 13:24:48;;;;;;;7.22;6.53;;;;;;;;;;4136905;34;20119;-63
2022/03/31 13:27:15;;;;;;;6.65;6.05;;;;;;;;;;4136739;34;20550;-62
2022/03/31 13:29:41;;;;;;;6.90;6.03;;;;;;;;;;4136774;34;20291;-63
2022/03/31 13:32:07;;;;;;;7.32;6.62;;;;;;;;;;4136309;34;20492;-61
2022/03/31 13:34:34;;;;;;;6.90;6.20;;;;;;;;;;4136618;34;20126;-63
2022/03/31 13:37:04;;;;;;;10.48;6.68;;;;;;;;;;4134184;34;20179;-62
2022/03/31 13:39:32;;;;;;;8.30;5.75;;;;;;;;;;4123385;34;20204;-63
2022/03/31 13:41:58;;;;;;;7.15;5.72;;;;;;;;;;4123004;34;20120;-63
2022/03/31 13:44:24;;;;;;;6.45;5.60;;;;;;;;;;4123253;34;20179;-61
2022/03/31 13:46:53;;;;;;;5.32;4.75;;;;;;;;;;4123128;34;20123;-61
2022/03/31 13:49:20;;;;;;;6.00;5.40;;;;;;;;;;4123216;34;20120;-62
2022/03/31 13:51:47;;;;;;;5.62;4.90;;;;;;;;;;4122627;34;20213;-61
2022/03/31 13:54:15;;;;;;;7.60;5.95;;;;;;;;;;4122426;34;20503;-61
2022/03/31 13:56:45;;;;;;;5.87;4.60;;;;;;;;;;4131297;34;20112;-62
2022/03/31 14:01:57;;;;;;;6.70;5.45;;;;;;;;;;4135977;34;20095;-63
2022/03/31 14:04:24;;;;;;;6.82;6.12;;;;;;;;;;4136087;34;20130;-62
2022/03/31 14:06:51;;;;;;;6.82;6.12;;;;;;;;;;4136369;34;20209;-62
2022/03/31 14:09:24;;;;;;;10.35;6.57;;;;;;;;;;4135138;34;20104;-62
2022/03/31 14:11:51;;;;;;;11.52;9.23;;;;;;;;;;4136247;34;20609;-61
2022/03/31 14:14:18;;;;;;;11.60;7.22;;;;;;;;;;4136295;34;20203;-61
2022/03/31 14:16:48;;;;;;;7.35;6.40;;;;;;;;;;4136029;34;20149;-62
2022/03/31 14:19:19;;;;;;;7.10;6.15;;;;;;;;;;4136511;34;20445;-63
2022/03/31 14:21:48;;;;;;;7.70;6.20;;;;;;;;;;4135781;34;20520;-62
2022/03/31 14:24:15;;;;;;;7.82;6.15;;;;;;;;;;4136113;34;20503;-62
2022/03/31 14:26:42;;;;;;;11.60;6.97;;;;;;;;;;4135950;34;20119;-62
2022/03/31 14:29:10;;;;;;;8.63;6.35;;;;;;;;;;4136253;34;20103;-62
2022/03/31 14:31:37;;;;;;;10.60;6.85;;;;;;;;;;4136054;34;20123;-62
2022/03/31 14:34:05;;;;;;;10.20;7.87;;;;;;;;;;4136376;34;20127;-62
2022/03/31 14:36:31;;;;;;;8.90;7.15;;;;;;;;;;4123574;34;20284;-63
2022/03/31 14:38:58;;;;;;;8.50;7.57;;;;;;;;;;4121651;34;20540;-63
2022/03/31 14:41:24;;;;;;;10.95;8.27;;;;;;;;;;4122671;34;20108;-61
2022/03/31 14:43:56;;;;;;;10.65;7.72;;;;;;;;;;4122658;34;20112;-61
2022/03/31 14:46:22;;;;;;;8.55;5.90;;;;;;;;;;4122393;34;20132;-61
2022/03/31 14:48:49;;;;;;;5.85;5.32;;;;;;;;;;4121386;34;20112;-60
2022/03/31 14:51:15;;;;;;;7.32;5.70;;;;;;;;;;4122381;34;20112;-67
2022/03/31 14:53:42;;;;;;;6.90;6.18;;;;;;;;;;4120049;34;20485;-69
2022/03/31 14:56:09;;;;;;;6.93;6.22;;;;;;;;;;4127578;34;20100;-67
2022/03/31 14:58:35;;;;;;;6.47;5.43;;;;;;;;;;4135871;34;20134;-63
2022/03/31 15:01:02;;;;;;;5.53;4.95;;;;;;;;;;4135790;34;20107;-65
2022/03/31 15:03:28;;;;;;;5.28;4.18;;;;;;;;;;4135958;34;20209;-63
2022/03/31 15:05:55;;;;;;;4.95;4.43;;;;;;;;;;4135606;34;20092;-66
2022/03/31 15:08:20;;;;;;;5.80;4.28;;;;;;;;;;4133243;34;20130;-64
2022/03/31 15:16:15;;;;;;;4.78;3.70;;;;;;;;;;4126242;34;20541;-64
2022/03/31 15:18:41;;;;;;;3.90;3.22;;;;;;;;;;4133731;34;20121;-69
2022/03/31 15:21:08;;;;;;;4.47;3.83;;;;;;;;;;4133543;34;20281;-66